Trinity, Florida
Current Conditions -  °F | °C
As of 9:02 AM on Wednesday 26 Nov 2014 (Local Time) from KBKV Reporting Station
Overcast Overcast  
Wind Chill: 53°   Ceiling: 1200
Heat Index: 53°   Visibility: 10mi
Dew Point: 50°   Wind: 9mph
Humidity: 89%   Direction: 320°NW
Pressure: 30.16"   Gusts: NA
Location:  28.2318°N, 82.5991°W
Report Text: KBKV 261402Z 32008KT 10SM OVC012 12/10 A3016 RMK AO2 RAE1359 P0000 T01170100 $
Loading
Personal Weather Stations






























Interactive Weather Map New forecast layout! Learn more

10-Day Weather Forecast

Advertisements
Track Severe Weather on mobile